Time;durP1;ratioP1;P1;durP2;ratioP2;P2;SDS_P1;SDS_P2;PMS_P1;PMS_P2;Temp;Humidity;BMP_temperature;BMP_pressure;BME280_temperature;BME280_humidity;BME280_pressure;Samples;Min_cycle;Max_cycle;Signal;HPM_P1;HPM_P2
2021/09/12 00:01:25;;;;;;;21.10;9.90;;;18.10;99.90;;;;;;4966864;28;20223;-85
2021/09/12 00:03:51;;;;;;;21.93;9.60;;;18.10;99.90;;;;;;4982972;28;20224;-84
2021/09/12 00:06:16;;;;;;;19.77;9.33;;;18.10;99.90;;;;;;4983354;28;20556;-85
2021/09/12 00:08:42;;;;;;;24.17;10.20;;;18.10;99.90;;;;;;4967488;28;20718;-85
2021/09/12 00:11:08;;;;;;;16.67;9.50;;;18.10;99.90;;;;;;4983360;28;20212;-85
2021/09/12 00:13:34;;;;;;;21.57;10.20;;;18.10;99.90;;;;;;4966975;28;20221;-85
2021/09/12 00:16:00;;;;;;;22.90;9.70;;;18.10;99.90;;;;;;4966535;28;20263;-85
2021/09/12 00:18:26;;;;;;;24.00;9.33;;;18.00;99.90;;;;;;4982844;28;20299;-86
2021/09/12 00:20:52;;;;;;;21.70;9.47;;;18.00;99.90;;;;;;4966698;28;20351;-86
2021/09/12 00:23:17;;;;;;;31.13;11.67;;;18.00;99.90;;;;;;4966702;28;20223;-85
2021/09/12 00:25:43;;;;;;;23.13;9.33;;;18.00;99.90;;;;;;4966439;28;20761;-84
2021/09/12 00:28:09;;;;;;;20.80;8.93;;;18.00;99.90;;;;;;4966618;28;20224;-85
2021/09/12 00:30:35;;;;;;;15.73;8.50;;;18.00;99.90;;;;;;4967866;28;21285;-87
2021/09/12 00:33:01;;;;;;;30.03;10.57;;;18.00;99.90;;;;;;4967546;28;20211;-85
2021/09/12 00:35:27;;;;;;;20.10;8.00;;;18.00;99.90;;;;;;4983216;28;20263;-86
2021/09/12 00:37:53;;;;;;;23.37;9.03;;;18.00;99.90;;;;;;4950796;28;20220;-85
2021/09/12 00:40:23;;;;;;;19.13;7.93;;;18.00;99.90;;;;;;4951463;28;20228;-85
2021/09/12 00:42:49;;;;;;;15.03;8.43;;;18.00;99.90;;;;;;4966175;28;20223;-85
2021/09/12 00:45:15;;;;;;;18.27;8.50;;;18.00;99.90;;;;;;4967149;28;20184;-84
2021/09/12 00:47:41;;;;;;;14.27;7.87;;;18.00;99.90;;;;;;4966130;28;20243;-85
2021/09/12 00:50:07;;;;;;;14.70;8.53;;;17.90;99.90;;;;;;4965637;28;20221;-84
2021/09/12 00:52:34;;;;;;;15.80;7.73;;;17.90;99.90;;;;;;4966278;28;20303;-85
2021/09/12 00:55:01;;;;;;;12.60;6.63;;;17.90;99.90;;;;;;4965683;28;20216;-85
2021/09/12 00:57:27;;;;;;;17.70;7.47;;;17.90;99.90;;;;;;4982217;28;20200;-83
2021/09/12 00:59:53;;;;;;;19.00;6.93;;;17.90;99.90;;;;;;4975538;28;20193;-85
2021/09/12 01:02:20;;;;;;;8.83;5.67;;;17.90;99.90;;;;;;4981714;28;20318;-84
2021/09/12 01:04:46;;;;;;;15.57;7.97;;;17.80;99.90;;;;;;4981956;28;20263;-86
2021/09/12 01:07:13;;;;;;;17.70;7.17;;;17.80;99.90;;;;;;4966226;28;20248;-85
2021/09/12 01:09:40;;;;;;;17.03;7.07;;;17.80;99.90;;;;;;4964944;28;20290;-84
2021/09/12 01:12:07;;;;;;;8.63;5.90;;;17.80;99.90;;;;;;4981505;28;20480;-84
2021/09/12 01:14:34;;;;;;;15.10;6.77;;;17.80;99.90;;;;;;4965550;28;20227;-85
2021/09/12 01:17:01;;;;;;;12.20;7.03;;;17.70;99.90;;;;;;4964724;28;20220;-83
2021/09/12 01:19:29;;;;;;;17.03;5.93;;;17.70;99.90;;;;;;4966303;28;20252;-85
2021/09/12 01:22:04;;;;;;;13.10;6.27;;;17.60;99.90;;;;;;4965498;28;20267;-85
2021/09/12 01:24:31;;;;;;;15.07;6.83;;;17.60;99.90;;;;;;4965818;28;20562;-84
2021/09/12 01:26:57;;;;;;;18.47;6.77;;;17.60;99.90;;;;;;4964987;28;20227;-84
2021/09/12 01:29:23;;;;;;;11.87;5.27;;;17.50;99.90;;;;;;4966094;28;20224;-83
2021/09/12 01:31:49;;;;;;;20.50;7.43;;;17.50;99.90;;;;;;4965013;28;20209;-83
2021/09/12 01:34:15;;;;;;;11.40;5.00;;;17.40;99.90;;;;;;4965266;28;20232;-85
2021/09/12 01:36:41;;;;;;;8.10;4.97;;;17.40;99.90;;;;;;4965810;28;20220;-84
2021/09/12 01:39:08;;;;;;;12.83;5.20;;;17.40;99.90;;;;;;4966221;28;20204;-85
2021/09/12 01:41:34;;;;;;;15.13;5.87;;;17.40;99.90;;;;;;4964870;28;20228;-85
2021/09/12 01:44:02;;;;;;;16.80;6.03;;;17.40;99.90;;;;;;4965045;28;20228;-83
2021/09/12 01:46:28;;;;;;;15.73;4.57;;;17.40;99.90;;;;;;4964575;28;20315;-85
2021/09/12 01:48:55;;;;;;;12.50;5.37;;;17.40;99.90;;;;;;4981069;28;20919;-85
2021/09/12 01:51:21;;;;;;;14.80;6.13;;;17.40;99.90;;;;;;4981290;28;20204;-84
2021/09/12 01:53:48;;;;;;;16.57;5.20;;;17.40;99.90;;;;;;4963173;28;20184;-86
2021/09/12 01:56:16;;;;;;;19.03;5.10;;;17.40;99.90;;;;;;4976842;28;20363;-85
2021/09/12 01:58:41;;;;;;;8.83;5.33;;;17.40;99.90;;;;;;4961614;28;20220;-86
2021/09/12 02:01:07;;;;;;;15.77;4.53;;;17.40;99.90;;;;;;4961610;28;20248;-85
2021/09/12 02:03:33;;;;;;;10.97;5.70;;;17.30;99.90;;;;;;4964060;28;20291;-86
2021/09/12 02:06:00;;;;;;;16.90;4.83;;;17.40;99.90;;;;;;4965476;28;21071;-82
2021/09/12 02:08:25;;;;;;;9.17;4.13;;;17.40;99.90;;;;;;4964986;28;20240;-85
2021/09/12 02:10:51;;;;;;;13.37;4.83;;;17.30;99.90;;;;;;4964167;28;20281;-85
2021/09/12 02:13:17;;;;;;;10.23;4.63;;;17.20;99.90;;;;;;4964153;28;20304;-85
2021/09/12 02:15:43;;;;;;;12.73;5.50;;;17.20;99.90;;;;;;4964577;28;20220;-83
2021/09/12 02:18:09;;;;;;;12.43;5.60;;;17.10;99.90;;;;;;4964847;28;20201;-86
2021/09/12 02:20:35;;;;;;;12.83;4.50;;;17.10;99.90;;;;;;4964447;28;20678;-84
2021/09/12 02:23:01;;;;;;;11.63;4.63;;;17.00;99.90;;;;;;4963936;28;20212;-84
2021/09/12 02:25:26;;;;;;;10.63;4.53;;;17.00;99.90;;;;;;4964460;28;20239;-85
2021/09/12 02:27:52;;;;;;;6.30;3.47;;;17.00;99.90;;;;;;4964620;28;20233;-84
2021/09/12 02:30:18;;;;;;;9.20;4.17;;;17.00;99.90;;;;;;4963985;28;20681;-85
2021/09/12 02:32:44;;;;;;;13.73;5.10;;;17.00;99.90;;;;;;4964430;28;20223;-85
2021/09/12 02:35:10;;;;;;;8.17;4.00;;;17.00;99.90;;;;;;4980125;28;20698;-83
2021/09/12 02:37:36;;;;;;;8.70;4.90;;;17.00;99.90;;;;;;4963729;28;20224;-86
2021/09/12 02:40:03;;;;;;;9.47;4.57;;;17.00;99.90;;;;;;4963881;28;20219;-84
2021/09/12 02:42:29;;;;;;;6.97;4.40;;;16.90;99.90;;;;;;4964351;28;20223;-84
2021/09/12 02:44:55;;;;;;;8.93;4.97;;;16.90;99.90;;;;;;4964534;28;20646;-84
2021/09/12 02:47:21;;;;;;;10.90;4.70;;;16.90;99.90;;;;;;4964342;28;20240;-84
2021/09/12 02:49:47;;;;;;;11.47;4.00;;;16.90;99.90;;;;;;4980639;28;20240;-84
2021/09/12 02:52:13;;;;;;;8.63;3.83;;;16.80;99.90;;;;;;4964115;28;20833;-84
2021/09/12 02:54:39;;;;;;;16.83;4.87;;;16.80;99.90;;;;;;4979639;28;20228;-85
2021/09/12 02:57:05;;;;;;;9.60;4.77;;;16.80;99.90;;;;;;4980838;28;20189;-83
2021/09/12 02:59:32;;;;;;;12.00;4.30;;;16.80;99.90;;;;;;4963759;28;20224;-85
2021/09/12 03:01:58;;;;;;;7.20;3.67;;;16.70;99.90;;;;;;4963571;28;20228;-84
2021/09/12 03:04:24;;;;;;;12.57;4.67;;;16.70;99.90;;;;;;4979995;28;20228;-85
2021/09/12 03:06:51;;;;;;;12.13;3.87;;;16.60;99.90;;;;;;4979413;28;20263;-85
2021/09/12 03:09:16;;;;;;;9.13;4.63;;;16.60;99.90;;;;;;4971575;28;20710;-85
2021/09/12 03:11:42;;;;;;;9.17;3.47;;;16.60;99.90;;;;;;4981884;28;20189;-85
2021/09/12 03:14:08;;;;;;;7.33;4.37;;;16.60;99.90;;;;;;4967315;28;20224;-85
2021/09/12 03:16:34;;;;;;;6.47;3.97;;;16.60;99.90;;;;;;4967683;28;20725;-85
2021/09/12 03:19:00;;;;;;;7.37;3.83;;;16.60;99.90;;;;;;4967756;28;20576;-85
2021/09/12 03:21:25;;;;;;;16.50;4.13;;;16.60;99.90;;;;;;4983210;28;20493;-85
2021/09/12 03:23:51;;;;;;;5.33;3.03;;;16.60;99.90;;;;;;4967665;28;20200;-84
2021/09/12 03:26:17;;;;;;;7.83;4.17;;;16.50;99.90;;;;;;4967246;28;20217;-84
2021/09/12 03:28:43;;;;;;;7.97;4.70;;;16.50;99.90;;;;;;4983494;28;21358;-84
2021/09/12 03:31:09;;;;;;;12.10;4.07;;;16.50;99.90;;;;;;4967352;28;20652;-85
2021/09/12 03:33:34;;;;;;;12.23;4.00;;;16.50;99.90;;;;;;4966957;28;20228;-84
2021/09/12 03:36:00;;;;;;;8.17;5.07;;;16.50;99.90;;;;;;4983849;28;20187;-85
2021/09/12 03:38:26;;;;;;;13.70;4.00;;;16.50;99.90;;;;;;4966546;28;20234;-84
2021/09/12 03:40:52;;;;;;;8.43;3.20;;;16.50;99.90;;;;;;4967832;28;20259;-85
2021/09/12 03:43:17;;;;;;;10.40;4.10;;;16.50;99.90;;;;;;4967570;28;20240;-85
2021/09/12 03:45:43;;;;;;;10.43;4.23;;;16.60;99.90;;;;;;4967183;28;21012;-85
2021/09/12 03:48:09;;;;;;;13.17;4.00;;;16.60;99.90;;;;;;4983487;28;20697;-84
2021/09/12 03:50:35;;;;;;;7.37;4.60;;;16.60;99.90;;;;;;4967888;28;20658;-85
2021/09/12 03:53:01;;;;;;;11.57;4.23;;;16.60;99.90;;;;;;4982996;28;20213;-84
2021/09/12 03:55:26;;;;;;;7.63;4.20;;;16.50;99.90;;;;;;4967228;28;20221;-84
2021/09/12 03:57:52;;;;;;;11.47;5.30;;;16.50;99.90;;;;;;4967005;28;20989;-84
2021/09/12 04:00:18;;;;;;;11.40;4.10;;;16.50;99.90;;;;;;4966811;28;20216;-85
2021/09/12 04:02:44;;;;;;;12.03;4.43;;;16.50;99.90;;;;;;4967264;28;20265;-86
2021/09/12 04:05:10;;;;;;;10.67;4.13;;;16.50;99.90;;;;;;4965354;28;20625;-84
2021/09/12 04:07:37;;;;;;;16.57;4.63;;;16.50;99.90;;;;;;4964344;28;20240;-84
2021/09/12 04:10:04;;;;;;;9.43;4.57;;;16.50;99.90;;;;;;4963761;28;20340;-84
2021/09/12 04:12:30;;;;;;;9.73;4.23;;;16.60;99.90;;;;;;4979905;28;21062;-86
2021/09/12 04:14:56;;;;;;;9.40;3.73;;;16.60;99.90;;;;;;4970697;28;20659;-85
2021/09/12 04:17:21;;;;;;;7.97;4.60;;;16.60;99.90;;;;;;4965864;28;20745;-85
2021/09/12 04:19:47;;;;;;;11.67;4.17;;;16.60;99.90;;;;;;4966228;28;20221;-84
2021/09/12 04:22:13;;;;;;;10.47;3.13;;;16.60;99.90;;;;;;4965325;28;20276;-84
2021/09/12 04:24:38;;;;;;;14.40;4.40;;;16.50;99.90;;;;;;4979764;28;20303;-84
2021/09/12 04:27:04;;;;;;;5.57;3.30;;;16.50;99.90;;;;;;4980748;28;20227;-84
2021/09/12 04:29:30;;;;;;;10.03;5.40;;;16.50;99.90;;;;;;4980877;28;20221;-84
2021/09/12 04:31:56;;;;;;;12.27;5.13;;;16.50;99.90;;;;;;4966215;28;20216;-86
2021/09/12 04:34:22;;;;;;;6.30;3.63;;;16.40;99.90;;;;;;4967579;28;20690;-84
2021/09/12 04:36:47;;;;;;;6.83;4.03;;;16.40;99.90;;;;;;4966061;28;20231;-85
2021/09/12 04:39:13;;;;;;;15.53;4.50;;;16.50;99.90;;;;;;4965676;28;20984;-85
2021/09/12 04:41:39;;;;;;;10.37;4.07;;;16.50;99.90;;;;;;4967615;28;20203;-84
2021/09/12 04:44:05;;;;;;;13.20;4.20;;;16.50;99.90;;;;;;4965290;28;20701;-84
2021/09/12 04:46:31;;;;;;;13.97;4.40;;;16.50;99.90;;;;;;4965295;28;20283;-84
2021/09/12 04:48:57;;;;;;;6.83;3.60;;;16.40;99.90;;;;;;4965645;28;20307;-84
2021/09/12 04:51:23;;;;;;;9.33;4.00;;;16.40;99.90;;;;;;4979414;28;20193;-85
2021/09/12 04:53:50;;;;;;;8.57;4.30;;;16.40;99.90;;;;;;4982813;28;20189;-85
2021/09/12 04:56:16;;;;;;;10.07;4.30;;;16.40;99.90;;;;;;4965951;28;20243;-84
2021/09/12 04:58:41;;;;;;;12.70;4.63;;;16.40;99.90;;;;;;4966063;28;20705;-83
2021/09/12 05:01:07;;;;;;;11.70;5.60;;;16.40;99.90;;;;;;4965729;28;20311;-84
2021/09/12 05:03:33;;;;;;;9.77;3.83;;;16.40;99.90;;;;;;4965773;28;20319;-85
2021/09/12 05:05:59;;;;;;;11.50;4.53;;;16.50;99.90;;;;;;4966331;28;21040;-84
2021/09/12 05:08:24;;;;;;;11.03;4.77;;;16.50;99.90;;;;;;4965617;28;20699;-86
2021/09/12 05:10:50;;;;;;;20.50;5.57;;;16.50;99.90;;;;;;4965631;28;20256;-85
2021/09/12 05:13:16;;;;;;;11.50;4.50;;;16.50;99.90;;;;;;4965074;28;20259;-84
2021/09/12 05:15:43;;;;;;;10.80;4.77;;;16.50;99.90;;;;;;4965471;28;20751;-84
2021/09/12 05:18:12;;;;;;;10.00;3.87;;;16.40;99.90;;;;;;4981614;28;20972;-85
2021/09/12 05:20:38;;;;;;;8.50;4.00;;;16.40;99.90;;;;;;4965617;28;20306;-85
2021/09/12 05:23:05;;;;;;;9.60;4.07;;;16.40;99.90;;;;;;4965021;28;20216;-86
2021/09/12 05:25:34;;;;;;;16.87;4.17;;;16.40;99.90;;;;;;4965198;28;20249;-84
2021/09/12 05:28:00;;;;;;;8.80;4.00;;;16.40;99.90;;;;;;4964657;28;20289;-84
2021/09/12 05:30:26;;;;;;;13.07;4.80;;;16.40;99.90;;;;;;4964741;28;20654;-84
2021/09/12 05:32:52;;;;;;;7.63;4.17;;;16.40;99.90;;;;;;4965819;28;20624;-85
2021/09/12 05:35:18;;;;;;;8.63;4.37;;;16.40;99.90;;;;;;4963729;28;20291;-85
2021/09/12 05:37:45;;;;;;;9.60;4.47;;;16.40;99.90;;;;;;4966563;28;21159;-86
2021/09/12 05:40:11;;;;;;;10.97;4.10;;;16.50;99.90;;;;;;4980500;28;20227;-84
2021/09/12 05:42:38;;;;;;;8.70;4.73;;;16.50;99.90;;;;;;4964953;28;20225;-84
2021/09/12 05:45:05;;;;;;;13.60;6.60;;;16.60;99.90;;;;;;4965483;28;20201;-84
2021/09/12 05:47:31;;;;;;;14.80;5.43;;;16.60;99.90;;;;;;4964919;28;20335;-86
2021/09/12 05:49:57;;;;;;;13.13;5.93;;;16.70;99.90;;;;;;4965109;28;20728;-84
2021/09/12 05:52:23;;;;;;;13.57;5.47;;;16.70;99.90;;;;;;4981450;28;20228;-85
2021/09/12 05:54:48;;;;;;;11.80;5.33;;;16.90;99.90;;;;;;4964641;28;20216;-87
2021/09/12 05:57:14;;;;;;;9.27;4.70;;;16.90;99.90;;;;;;4964440;28;20898;-85
2021/09/12 05:59:40;;;;;;;8.60;5.20;;;17.00;99.90;;;;;;4965373;28;20288;-87
2021/09/12 06:02:05;;;;;;;14.57;6.53;;;17.10;99.90;;;;;;4980498;28;20222;-86
2021/09/12 06:04:31;;;;;;;14.67;6.60;;;17.10;99.90;;;;;;4964732;28;20593;-84
2021/09/12 06:06:57;;;;;;;11.47;5.60;;;17.40;99.90;;;;;;4964130;28;20239;-84
2021/09/12 06:09:24;;;;;;;13.20;6.43;;;17.50;99.90;;;;;;4964762;28;20196;-84
2021/09/12 06:11:50;;;;;;;9.97;6.30;;;17.50;99.90;;;;;;4965014;28;20231;-83
2021/09/12 06:14:16;;;;;;;12.33;5.40;;;17.60;99.90;;;;;;4980711;28;20256;-85
2021/09/12 06:16:42;;;;;;;13.10;6.33;;;17.60;99.90;;;;;;4965054;28;20367;-85
2021/09/12 06:19:08;;;;;;;14.57;6.37;;;17.60;99.90;;;;;;4979809;28;20258;-85
2021/09/12 06:21:34;;;;;;;9.33;5.37;;;17.80;99.90;;;;;;4965713;28;20228;-86
2021/09/12 06:24:00;;;;;;;6.93;4.70;;;17.80;99.90;;;;;;4964799;28;20243;-86
2021/09/12 06:26:26;;;;;;;14.90;5.67;;;17.70;99.90;;;;;;4964290;28;20567;-84
2021/09/12 06:28:52;;;;;;;9.00;5.27;;;17.80;99.90;;;;;;4980502;28;20244;-84
2021/09/12 06:31:18;;;;;;;19.77;5.87;;;17.80;99.90;;;;;;4964376;28;20247;-86
2021/09/12 06:33:44;;;;;;;13.10;5.10;;;17.80;99.90;;;;;;4964290;28;20744;-85
2021/09/12 06:36:10;;;;;;;7.77;4.03;;;17.90;99.90;;;;;;4965118;28;20192;-83
2021/09/12 06:38:36;;;;;;;10.63;5.93;;;17.90;99.90;;;;;;4964967;28;20248;-84
2021/09/12 06:41:02;;;;;;;11.17;5.43;;;18.00;99.90;;;;;;4963523;28;20216;-82
2021/09/12 06:43:28;;;;;;;11.57;4.53;;;18.00;99.90;;;;;;4963762;28;20707;-83
2021/09/12 06:45:54;;;;;;;9.30;4.63;;;18.00;99.90;;;;;;4979924;28;20995;-83
2021/09/12 06:48:20;;;;;;;6.97;4.73;;;18.00;99.90;;;;;;4967499;28;20344;-83
2021/09/12 06:50:45;;;;;;;10.27;4.97;;;18.10;99.90;;;;;;4967524;28;20216;-84
2021/09/12 06:53:12;;;;;;;10.00;4.37;;;18.20;99.90;;;;;;4968286;28;20884;-83
2021/09/12 06:55:39;;;;;;;8.13;5.10;;;18.30;99.90;;;;;;4975010;28;20216;-83
2021/09/12 06:58:05;;;;;;;10.47;4.70;;;18.40;99.90;;;;;;4983270;28;20580;-85
2021/09/12 07:00:34;;;;;;;7.97;5.03;;;18.60;99.90;;;;;;4967500;28;20220;-83
2021/09/12 07:03:00;;;;;;;9.83;5.00;;;18.90;99.90;;;;;;4968472;28;20193;-84
2021/09/12 07:05:26;;;;;;;9.40;5.93;;;19.10;99.90;;;;;;4983140;28;20887;-82
2021/09/12 07:07:52;;;;;;;12.10;5.97;;;20.20;99.90;;;;;;4968894;28;21121;-84
2021/09/12 07:10:18;;;;;;;7.47;4.57;;;21.50;99.90;;;;;;4983899;28;20224;-84
2021/09/12 07:12:45;;;;;;;7.40;4.47;;;22.30;99.90;;;;;;4966965;28;20282;-84
2021/09/12 07:15:11;;;;;;;7.67;3.97;;;23.20;99.90;;;;;;4980533;28;20197;-83
2021/09/12 07:17:37;;;;;;;5.53;3.37;;;23.60;99.90;;;;;;4980623;28;20196;-83
2021/09/12 07:20:03;;;;;;;5.70;2.83;;;23.90;99.90;;;;;;4972242;28;20231;-85
2021/09/12 07:22:29;;;;;;;5.37;3.53;;;23.90;99.90;;;;;;4965685;28;20224;-84
2021/09/12 07:24:55;;;;;;;5.30;3.50;;;23.60;99.90;;;;;;4975243;28;20592;-84
2021/09/12 07:27:21;;;;;;;4.23;3.10;;;23.50;99.90;;;;;;4983063;28;20223;-85
2021/09/12 07:29:47;;;;;;;5.33;3.03;;;23.30;99.90;;;;;;4985089;28;20270;-85
2021/09/12 07:32:13;;;;;;;6.67;2.90;;;23.50;99.90;;;;;;4951596;28;20312;-87
2021/09/12 07:34:39;;;;;;;4.38;2.40;;;23.20;99.90;;;;;;4967711;28;20255;-84
2021/09/12 07:37:04;;;;;;;3.70;2.40;;;23.00;99.90;;;;;;4966265;28;20225;-85
2021/09/12 07:39:30;;;;;;;5.30;2.17;;;23.80;99.90;;;;;;4968083;28;20228;-86
2021/09/12 07:41:56;;;;;;;5.68;2.38;;;23.10;99.90;;;;;;4968190;28;20228;-85
2021/09/12 07:44:22;;;;;;;3.80;2.20;;;23.20;99.90;;;;;;4983812;28;21321;-84
2021/09/12 07:46:48;;;;;;;3.05;1.98;;;24.20;99.90;;;;;;4967092;28;20647;-87
2021/09/12 07:49:13;;;;;;;2.40;2.20;;;24.70;99.90;;;;;;4967538;28;20228;-84
2021/09/12 07:51:39;;;;;;;3.70;1.42;;;24.00;99.90;;;;;;4967321;28;20720;-85
2021/09/12 07:54:05;;;;;;;2.00;1.73;;;23.10;99.90;;;;;;4984249;28;20193;-86
2021/09/12 07:56:31;;;;;;;2.85;1.67;;;22.60;99.90;;;;;;4968266;28;21158;-85
2021/09/12 07:58:56;;;;;;;0.90;0.90;;;22.10;99.90;;;;;;4950582;28;20777;-86
2021/09/12 08:01:22;;;;;;;2.15;1.20;;;21.80;99.90;;;;;;4966789;28;20864;-84
2021/09/12 08:03:48;;;;;;;1.02;0.90;;;21.30;99.90;;;;;;4967076;28;20216;-85
2021/09/12 08:06:13;;;;;;;0.93;0.80;;;20.80;99.90;;;;;;4982812;28;20763;-86
2021/09/12 08:08:39;;;;;;;3.03;1.10;;;20.60;99.90;;;;;;4967663;28;20243;-85
2021/09/12 08:11:05;;;;;;;2.13;0.77;;;20.70;99.90;;;;;;4966366;28;20228;-84
2021/09/12 08:13:31;;;;;;;2.27;1.17;;;20.70;99.90;;;;;;4966531;28;20220;-85
2021/09/12 08:15:56;;;;;;;1.60;1.43;;;21.30;99.90;;;;;;4966429;28;20216;-87
2021/09/12 08:18:23;;;;;;;1.80;1.10;;;22.50;99.90;;;;;;4967121;28;20764;-85
2021/09/12 08:20:49;;;;;;;1.88;0.85;;;22.70;99.90;;;;;;4984071;28;20200;-85
2021/09/12 08:23:15;;;;;;;2.55;1.10;;;22.70;99.90;;;;;;4966490;28;20772;-84
2021/09/12 08:25:41;;;;;;;1.38;1.10;;;22.80;99.90;;;;;;4982922;28;20224;-86
2021/09/12 08:28:07;;;;;;;1.33;1.23;;;23.00;99.90;;;;;;4982704;28;20232;-84
2021/09/12 08:30:33;;;;;;;5.28;1.23;;;22.70;99.90;;;;;;4966543;28;20232;-86
2021/09/12 08:32:59;;;;;;;2.50;1.60;;;22.90;99.90;;;;;;4983081;28;20188;-85
2021/09/12 08:35:27;;;;;;;0.85;0.85;;;22.30;99.90;;;;;;4966182;28;20698;-86
2021/09/12 08:37:53;;;;;;;0.88;0.85;;;21.80;99.90;;;;;;4966452;28;20669;-88
2021/09/12 08:40:19;;;;;;;3.20;1.20;;;21.60;99.90;;;;;;4966585;28;20249;-85
2021/09/12 08:42:45;;;;;;;1.88;0.98;;;22.00;99.90;;;;;;4967091;28;21026;-86
2021/09/12 08:45:12;;;;;;;4.57;1.38;;;22.30;99.90;;;;;;4967239;28;20216;-88
2021/09/12 08:47:40;;;;;;;1.67;1.00;;;22.00;99.90;;;;;;4983865;28;20276;-86
2021/09/12 08:50:06;;;;;;;3.28;1.70;;;22.00;99.90;;;;;;4966514;28;20252;-86
2021/09/12 08:52:32;;;;;;;1.25;1.15;;;22.20;99.90;;;;;;4982226;28;20238;-86
2021/09/12 08:54:57;;;;;;;1.42;1.15;;;22.50;99.90;;;;;;4966416;28;20583;-84
2021/09/12 08:57:23;;;;;;;2.50;1.20;;;22.30;99.90;;;;;;4966615;28;20207;-87
2021/09/12 08:59:51;;;;;;;2.08;1.75;;;21.80;99.90;;;;;;4967087;28;20192;-83
2021/09/12 09:02:24;;;;;;;1.97;0.93;;;22.00;99.90;;;;;;4965389;28;20216;-89
2021/09/12 09:05:03;;;;;;;4.30;1.27;;;22.30;99.90;;;;;;4980600;28;20263;-87
2021/09/12 09:07:32;;;;;;;0.80;0.80;;;22.00;99.90;;;;;;4965697;28;20286;-87
2021/09/12 09:09:59;;;;;;;2.05;1.25;;;22.30;99.90;;;;;;4964290;28;20259;-88
2021/09/12 09:12:35;;;;;;;2.97;1.08;;;22.40;99.90;;;;;;4965578;28;20688;-87
2021/09/12 09:15:06;;;;;;;2.42;0.95;;;23.00;99.90;;;;;;4965854;28;20188;-89
2021/09/12 09:17:38;;;;;;;1.30;1.20;;;23.60;99.90;;;;;;4964777;28;20236;-86
2021/09/12 09:20:06;;;;;;;1.40;1.30;;;23.30;99.90;;;;;;4966658;28;20216;-87
2021/09/12 09:22:47;;;;;;;1.63;1.42;;;23.30;99.90;;;;;;4965364;28;20236;-87
2021/09/12 09:25:20;;;;;;;1.08;1.05;;;22.80;99.90;;;;;;4964994;28;20674;-85
2021/09/12 09:28:07;;;;;;;1.67;1.23;;;22.60;99.90;;;;;;4965225;28;20306;-86
2021/09/12 09:30:51;;;;;;;2.08;1.10;;;23.20;99.90;;;;;;4966512;28;20220;-85
2021/09/12 09:33:27;;;;;;;1.00;1.00;;;23.50;99.90;;;;;;4964413;28;20315;-87
2021/09/12 09:36:06;;;;;;;1.25;1.15;;;22.70;99.90;;;;;;4965320;28;20180;-85
2021/09/12 09:38:33;;;;;;;0.90;0.90;;;23.10;99.90;;;;;;4965478;28;20220;-84
2021/09/12 09:41:05;;;;;;;1.38;0.90;;;23.50;99.90;;;;;;4963966;28;20224;-84
2021/09/12 09:43:42;;;;;;;2.97;0.90;;;23.20;99.90;;;;;;4964124;28;20307;-85
2021/09/12 09:46:38;;;;;;;1.33;0.90;;;23.30;99.90;;;;;;4965645;28;20188;-86
2021/09/12 09:49:23;;;;;;;0.80;0.80;;;22.90;99.90;;;;;;4963961;28;20228;-86
2021/09/12 09:51:52;;;;;;;2.22;0.80;;;22.20;99.90;;;;;;4980940;28;21071;-85
2021/09/12 09:54:20;;;;;;;0.80;0.80;;;22.20;99.90;;;;;;4980676;28;20248;-85
2021/09/12 09:56:47;;;;;;;1.00;0.70;;;22.30;99.90;;;;;;4963429;28;20275;-83
2021/09/12 09:59:15;;;;;;;2.10;1.00;;;22.00;99.90;;;;;;4980769;28;20243;-86
2021/09/12 10:01:42;;;;;;;1.60;0.95;;;21.70;99.90;;;;;;4981497;28;20201;-86
2021/09/12 10:04:09;;;;;;;0.93;0.77;;;22.00;99.90;;;;;;4964868;28;20217;-86
2021/09/12 10:06:36;;;;;;;0.75;0.75;;;21.60;99.90;;;;;;4965646;28;20286;-84
2021/09/12 10:09:02;;;;;;;1.17;1.08;;;21.90;99.90;;;;;;4964040;28;20220;-87
2021/09/12 10:11:30;;;;;;;0.88;0.88;;;22.00;99.90;;;;;;4971513;28;21291;-87
2021/09/12 10:13:56;;;;;;;1.20;1.02;;;21.80;99.90;;;;;;4965453;28;20283;-86
2021/09/12 10:16:23;;;;;;;1.85;1.00;;;21.50;99.90;;;;;;4943951;28;20209;-87
2021/09/12 10:18:49;;;;;;;1.35;1.25;;;21.40;99.90;;;;;;4982155;28;20204;-89
2021/09/12 10:21:23;;;;;;;1.05;0.80;;;21.40;99.90;;;;;;4964276;28;20224;-89
2021/09/12 10:24:03;;;;;;;2.90;1.00;;;21.00;99.90;;;;;;4965567;28;20243;-87
2021/09/12 10:26:35;;;;;;;1.37;0.97;;;21.00;99.90;;;;;;4980663;28;20983;-86
2021/09/12 10:29:01;;;;;;;1.40;0.90;;;21.20;99.90;;;;;;4966009;28;20608;-87
2021/09/12 10:31:27;;;;;;;1.30;0.90;;;21.00;99.90;;;;;;4980670;28;21035;-87
2021/09/12 10:34:07;;;;;;;1.10;1.00;;;21.20;99.90;;;;;;4965425;28;20224;-88
2021/09/12 10:36:33;;;;;;;1.83;1.43;;;21.10;99.90;;;;;;4981022;28;20274;-88
2021/09/12 10:39:28;;;;;;;1.83;0.93;;;20.90;99.90;;;;;;4966210;28;20216;-85
2021/09/12 10:42:12;;;;;;;3.17;1.20;;;21.00;99.90;;;;;;4965059;28;20251;-90
2021/09/12 10:44:39;;;;;;;2.23;1.27;;;21.30;99.90;;;;;;4965498;28;20401;-86
2021/09/12 10:47:13;;;;;;;0.93;0.93;;;21.10;99.90;;;;;;4966434;28;20236;-86
2021/09/12 10:49:40;;;;;;;1.83;1.40;;;21.20;99.90;;;;;;4965752;28;20263;-87
2021/09/12 10:52:44;;;;;;;3.00;1.20;;;21.00;99.90;;;;;;4967368;28;20188;-89
2021/09/12 10:55:10;;;;;;;4.53;1.50;;;20.70;99.90;;;;;;4960224;28;20220;-88
2021/09/12 10:57:37;;;;;;;1.30;1.20;;;20.40;99.90;;;;;;4961352;28;20247;-86
2021/09/12 11:00:08;;;;;;;2.73;1.17;;;20.20;99.90;;;;;;4946186;28;20223;-89
2021/09/12 11:02:34;;;;;;;4.30;1.20;;;20.60;99.90;;;;;;4962223;28;20240;-88
2021/09/12 11:05:19;;;;;;;1.50;0.97;;;20.80;99.90;;;;;;4962906;28;20423;-89
2021/09/12 11:07:55;;;;;;;2.60;1.00;;;20.80;99.90;;;;;;4948359;28;20232;-87
2021/09/12 11:10:42;;;;;;;2.30;1.57;;;20.70;99.90;;;;;;4946805;28;20271;-88
2021/09/12 11:13:08;;;;;;;1.27;1.17;;;20.60;99.90;;;;;;4980761;28;20289;-85
2021/09/12 11:15:34;;;;;;;2.73;1.20;;;20.40;99.90;;;;;;4949049;28;20303;-89
2021/09/12 11:18:01;;;;;;;1.20;1.10;;;20.10;99.90;;;;;;4963021;28;20228;-88
2021/09/12 11:20:53;;;;;;;1.23;1.13;;;20.20;99.90;;;;;;4963371;28;20220;-89
2021/09/12 11:23:32;;;;;;;1.33;1.20;;;20.10;99.90;;;;;;4948559;28;20224;-88
2021/09/12 11:25:58;;;;;;;1.73;1.20;;;20.00;99.90;;;;;;4963588;28;20262;-87
2021/09/12 11:28:29;;;;;;;0.87;0.87;;;19.90;99.90;;;;;;4960935;28;20646;-90
2021/09/12 11:30:56;;;;;;;1.33;0.97;;;19.90;99.90;;;;;;4977810;28;20210;-89
2021/09/12 11:33:43;;;;;;;1.20;1.10;;;19.70;99.90;;;;;;4963538;28;20227;-89
2021/09/12 11:36:09;;;;;;;3.27;1.30;;;19.90;99.90;;;;;;4963102;28;20228;-87
2021/09/12 11:38:34;;;;;;;1.30;1.20;;;20.00;99.90;;;;;;4965265;28;20449;-90
2021/09/12 11:41:00;;;;;;;2.57;1.17;;;20.00;99.90;;;;;;4985164;28;20303;-91
2021/09/12 11:43:26;;;;;;;5.47;1.23;;;20.00;99.90;;;;;;4968614;28;20650;-85
2021/09/12 11:46:10;;;;;;;1.43;1.33;;;20.10;99.90;;;;;;4986666;28;20197;-87
2021/09/12 11:48:39;;;;;;;2.00;1.47;;;20.10;99.90;;;;;;4968411;28;20239;-88
2021/09/12 11:51:06;;;;;;;4.97;1.80;;;20.20;99.90;;;;;;4970642;28;20236;-87
2021/09/12 11:53:32;;;;;;;4.50;1.27;;;20.10;99.90;;;;;;4983917;28;20219;-88
2021/09/12 11:56:10;;;;;;;3.73;1.50;;;20.10;99.90;;;;;;4969023;28;20349;-89
2021/09/12 11:58:37;;;;;;;1.30;1.20;;;20.40;99.90;;;;;;4985539;28;20301;-87
2021/09/12 12:01:05;;;;;;;3.67;1.40;;;20.50;99.90;;;;;;4969011;28;20223;-87
2021/09/12 12:03:31;;;;;;;1.10;1.00;;;20.50;99.90;;;;;;4968308;28;20391;-89
2021/09/12 12:05:58;;;;;;;1.43;1.07;;;20.40;99.90;;;;;;4969563;28;20260;-89
2021/09/12 12:08:24;;;;;;;2.73;1.27;;;20.20;99.90;;;;;;4983751;28;20237;-86
2021/09/12 12:10:50;;;;;;;4.23;1.17;;;20.30;99.90;;;;;;4969103;28;20436;-87
2021/09/12 12:13:16;;;;;;;1.47;1.00;;;20.30;99.90;;;;;;4967845;28;20228;-91
2021/09/12 12:15:46;;;;;;;0.60;0.60;;;20.20;99.90;;;;;;4968759;28;20216;-88
2021/09/12 12:18:14;;;;;;;1.27;0.87;;;20.10;99.90;;;;;;4976959;28;20224;-87
2021/09/12 12:20:41;;;;;;;3.83;1.00;;;20.00;99.90;;;;;;4969580;28;20220;-85
2021/09/12 12:23:23;;;;;;;2.30;0.90;;;20.20;99.90;;;;;;4968357;28;20220;-88
2021/09/12 12:25:51;;;;;;;1.77;1.37;;;20.20;99.90;;;;;;4967721;28;20236;-86
2021/09/12 12:28:22;;;;;;;2.87;1.53;;;20.20;99.90;;;;;;4968357;28;20216;-86
2021/09/12 12:31:12;;;;;;;1.53;0.90;;;20.00;99.90;;;;;;4970010;28;20184;-87
2021/09/12 12:33:39;;;;;;;1.13;1.10;;;20.20;99.90;;;;;;4970896;28;20223;-87
2021/09/12 12:36:07;;;;;;;0.80;0.77;;;20.20;99.90;;;;;;4968615;28;20283;-89
2021/09/12 12:38:37;;;;;;;4.77;1.23;;;20.30;99.90;;;;;;4983510;28;20228;-88
2021/09/12 12:41:07;;;;;;;4.17;1.00;;;20.20;99.90;;;;;;4966437;28;20227;-88
2021/09/12 12:43:34;;;;;;;11.13;1.33;;;20.20;99.90;;;;;;4962264;28;20225;-87
2021/09/12 12:45:59;;;;;;;2.27;1.00;;;20.40;99.90;;;;;;4980453;28;20339;-86